sensor_id;sensor_type;location;lat;lon;timestamp;temperature;humidity
73121;DHT22;61307;49.628;-1.624;2023-10-13T00:00:22;20.50;72.20
73121;DHT22;61307;49.628;-1.624;2023-10-13T00:03:00;20.50;72.10
73121;DHT22;61307;49.628;-1.624;2023-10-13T00:05:27;20.50;72.10
73121;DHT22;61307;49.628;-1.624;2023-10-13T00:08:09;20.50;72.20
73121;DHT22;61307;49.628;-1.624;2023-10-13T00:10:37;20.50;72.10
73121;DHT22;61307;49.628;-1.624;2023-10-13T00:13:04;20.50;72.20
73121;DHT22;61307;49.628;-1.624;2023-10-13T00:15:43;20.50;72.20
73121;DHT22;61307;49.628;-1.624;2023-10-13T00:18:25;20.50;72.20
73121;DHT22;61307;49.628;-1.624;2023-10-13T00:21:00;20.50;72.20
73121;DHT22;61307;49.628;-1.624;2023-10-13T00:23:29;20.50;72.20
73121;DHT22;61307;49.628;-1.624;2023-10-13T00:25:59;20.50;72.20
73121;DHT22;61307;49.628;-1.624;2023-10-13T00:28:28;20.50;72.20
73121;DHT22;61307;49.628;-1.624;2023-10-13T00:31:09;20.50;72.20
73121;DHT22;61307;49.628;-1.624;2023-10-13T00:33:40;20.50;72.20
73121;DHT22;61307;49.628;-1.624;2023-10-13T00:36:08;20.50;72.20
73121;DHT22;61307;49.628;-1.624;2023-10-13T00:38:43;20.50;73.00
73121;DHT22;61307;49.628;-1.624;2023-10-13T00:41:14;20.50;72.20
73121;DHT22;61307;49.628;-1.624;2023-10-13T00:43:49;20.50;72.20
73121;DHT22;61307;49.628;-1.624;2023-10-13T00:46:31;20.50;72.40
73121;DHT22;61307;49.628;-1.624;2023-10-13T00:49:03;20.50;72.20
73121;DHT22;61307;49.628;-1.624;2023-10-13T00:51:31;20.50;72.50
73121;DHT22;61307;49.628;-1.624;2023-10-13T00:54:05;20.50;72.40
73121;DHT22;61307;49.628;-1.624;2023-10-13T00:56:38;20.50;72.30
73121;DHT22;61307;49.628;-1.624;2023-10-13T00:59:09;20.50;72.40
73121;DHT22;61307;49.628;-1.624;2023-10-13T01:01:39;20.50;72.50
73121;DHT22;61307;49.628;-1.624;2023-10-13T01:04:10;20.50;72.30
73121;DHT22;61307;49.628;-1.624;2023-10-13T01:06:39;20.50;72.60
73121;DHT22;61307;49.628;-1.624;2023-10-13T01:09:06;20.50;72.50
73121;DHT22;61307;49.628;-1.624;2023-10-13T01:11:43;20.50;72.60
73121;DHT22;61307;49.628;-1.624;2023-10-13T01:14:10;20.50;72.50
73121;DHT22;61307;49.628;-1.624;2023-10-13T01:16:40;20.50;72.60
73121;DHT22;61307;49.628;-1.624;2023-10-13T01:19:11;20.50;72.60
73121;DHT22;61307;49.628;-1.624;2023-10-13T01:21:40;20.50;72.50
73121;DHT22;61307;49.628;-1.624;2023-10-13T01:24:08;20.50;72.50
73121;DHT22;61307;49.628;-1.624;2023-10-13T01:26:39;20.50;72.60
73121;DHT22;61307;49.628;-1.624;2023-10-13T01:29:06;20.40;72.50
73121;DHT22;61307;49.628;-1.624;2023-10-13T01:31:40;20.40;72.50
73121;DHT22;61307;49.628;-1.624;2023-10-13T01:34:19;20.50;72.60
73121;DHT22;61307;49.628;-1.624;2023-10-13T01:36:48;20.40;72.40
73121;DHT22;61307;49.628;-1.624;2023-10-13T01:39:18;20.40;72.40
73121;DHT22;61307;49.628;-1.624;2023-10-13T01:45:10;20.50;72.60
73121;DHT22;61307;49.628;-1.624;2023-10-13T01:50:32;20.40;72.40
73121;DHT22;61307;49.628;-1.624;2023-10-13T01:52:59;20.50;72.50
73121;DHT22;61307;49.628;-1.624;2023-10-13T01:55:42;20.50;72.50
73121;DHT22;61307;49.628;-1.624;2023-10-13T01:58:10;20.40;72.30
73121;DHT22;61307;49.628;-1.624;2023-10-13T02:00:41;20.50;72.50
73121;DHT22;61307;49.628;-1.624;2023-10-13T02:03:09;20.50;72.40
73121;DHT22;61307;49.628;-1.624;2023-10-13T02:05:42;20.40;72.30
73121;DHT22;61307;49.628;-1.624;2023-10-13T02:08:14;20.40;72.30
73121;DHT22;61307;49.628;-1.624;2023-10-13T02:10:49;20.50;72.40
73121;DHT22;61307;49.628;-1.624;2023-10-13T02:13:18;20.40;72.20
73121;DHT22;61307;49.628;-1.624;2023-10-13T02:15:45;20.40;72.20
73121;DHT22;61307;49.628;-1.624;2023-10-13T02:18:14;20.50;72.30
73121;DHT22;61307;49.628;-1.624;2023-10-13T02:20:47;20.40;72.20
73121;DHT22;61307;49.628;-1.624;2023-10-13T02:23:21;20.40;73.00
73121;DHT22;61307;49.628;-1.624;2023-10-13T02:25:49;20.40;72.90
73121;DHT22;61307;49.628;-1.624;2023-10-13T02:28:21;20.40;72.10
73121;DHT22;61307;49.628;-1.624;2023-10-13T02:30:54;20.40;72.10
73121;DHT22;61307;49.628;-1.624;2023-10-13T02:33:23;20.40;72.10
73121;DHT22;61307;49.628;-1.624;2023-10-13T02:35:56;20.40;72.10
73121;DHT22;61307;49.628;-1.624;2023-10-13T02:38:24;20.40;72.10
73121;DHT22;61307;49.628;-1.624;2023-10-13T02:41:03;20.40;72.10
73121;DHT22;61307;49.628;-1.624;2023-10-13T02:43:36;20.40;72.10
73121;DHT22;61307;49.628;-1.624;2023-10-13T02:46:04;20.40;72.10
73121;DHT22;61307;49.628;-1.624;2023-10-13T02:48:31;20.40;72.10
73121;DHT22;61307;49.628;-1.624;2023-10-13T02:51:06;20.50;72.10
73121;DHT22;61307;49.628;-1.624;2023-10-13T02:53:42;20.40;72.00
73121;DHT22;61307;49.628;-1.624;2023-10-13T02:56:14;20.40;72.10
73121;DHT22;61307;49.628;-1.624;2023-10-13T02:58:48;20.40;72.00
73121;DHT22;61307;49.628;-1.624;2023-10-13T03:01:19;20.40;72.00
73121;DHT22;61307;49.628;-1.624;2023-10-13T03:03:48;20.40;72.00
73121;DHT22;61307;49.628;-1.624;2023-10-13T03:06:37;20.40;72.00
73121;DHT22;61307;49.628;-1.624;2023-10-13T03:12:08;20.40;72.00
73121;DHT22;61307;49.628;-1.624;2023-10-13T03:14:35;20.50;72.10
73121;DHT22;61307;49.628;-1.624;2023-10-13T03:17:02;20.40;72.00
73121;DHT22;61307;49.628;-1.624;2023-10-13T03:19:32;20.40;72.00
73121;DHT22;61307;49.628;-1.624;2023-10-13T03:21:58;20.40;72.00
73121;DHT22;61307;49.628;-1.624;2023-10-13T03:24:35;20.40;72.00
73121;DHT22;61307;49.628;-1.624;2023-10-13T03:27:01;20.40;72.00
73121;DHT22;61307;49.628;-1.624;2023-10-13T03:29:36;20.40;72.00
73121;DHT22;61307;49.628;-1.624;2023-10-13T03:32:03;20.40;72.00
73121;DHT22;61307;49.628;-1.624;2023-10-13T03:34:37;20.40;72.00
73121;DHT22;61307;49.628;-1.624;2023-10-13T03:37:16;20.40;72.00
73121;DHT22;61307;49.628;-1.624;2023-10-13T03:39:45;20.40;72.00
73121;DHT22;61307;49.628;-1.624;2023-10-13T03:45:50;20.40;72.00
73121;DHT22;61307;49.628;-1.624;2023-10-13T03:48:27;20.40;72.00
73121;DHT22;61307;49.628;-1.624;2023-10-13T03:50:58;20.40;72.00
73121;DHT22;61307;49.628;-1.624;2023-10-13T03:53:29;20.40;72.00
73121;DHT22;61307;49.628;-1.624;2023-10-13T03:56:01;20.40;72.00
73121;DHT22;61307;49.628;-1.624;2023-10-13T03:58:41;20.40;72.00
73121;DHT22;61307;49.628;-1.624;2023-10-13T04:01:21;20.40;72.00
73121;DHT22;61307;49.628;-1.624;2023-10-13T04:03:58;20.40;72.00
73121;DHT22;61307;49.628;-1.624;2023-10-13T04:06:30;20.40;72.00
73121;DHT22;61307;49.628;-1.624;2023-10-13T04:09:14;20.40;72.00
73121;DHT22;61307;49.628;-1.624;2023-10-13T04:12:05;20.40;72.00
73121;DHT22;61307;49.628;-1.624;2023-10-13T04:15:07;20.40;72.00
73121;DHT22;61307;49.628;-1.624;2023-10-13T04:17:53;20.40;72.00
73121;DHT22;61307;49.628;-1.624;2023-10-13T04:20:21;20.40;72.00
73121;DHT22;61307;49.628;-1.624;2023-10-13T04:23:13;20.40;72.00
73121;DHT22;61307;49.628;-1.624;2023-10-13T04:36:01;20.30;71.90
73121;DHT22;61307;49.628;-1.624;2023-10-13T04:38:39;20.30;71.80
73121;DHT22;61307;49.628;-1.624;2023-10-13T04:41:22;20.30;71.80
73121;DHT22;61307;49.628;-1.624;2023-10-13T04:43:49;20.40;71.90
73121;DHT22;61307;49.628;-1.624;2023-10-13T04:46:23;20.30;71.80
73121;DHT22;61307;49.628;-1.624;2023-10-13T04:49:06;20.30;71.80
73121;DHT22;61307;49.628;-1.624;2023-10-13T04:51:55;20.40;71.80
73121;DHT22;61307;49.628;-1.624;2023-10-13T04:54:27;20.30;71.80
73121;DHT22;61307;49.628;-1.624;2023-10-13T04:56:59;20.30;71.70
73121;DHT22;61307;49.628;-1.624;2023-10-13T04:59:40;20.30;71.70
73121;DHT22;61307;49.628;-1.624;2023-10-13T05:02:22;20.30;71.70
73121;DHT22;61307;49.628;-1.624;2023-10-13T05:05:09;20.30;71.70
73121;DHT22;61307;49.628;-1.624;2023-10-13T05:08:10;20.30;71.70
73121;DHT22;61307;49.628;-1.624;2023-10-13T05:11:06;20.30;71.70
73121;DHT22;61307;49.628;-1.624;2023-10-13T05:13:53;20.30;71.70
73121;DHT22;61307;49.628;-1.624;2023-10-13T05:16:38;20.30;71.60
73121;DHT22;61307;49.628;-1.624;2023-10-13T05:19:24;20.30;71.60
73121;DHT22;61307;49.628;-1.624;2023-10-13T05:22:09;20.30;71.50
73121;DHT22;61307;49.628;-1.624;2023-10-13T05:24:55;20.30;71.50
73121;DHT22;61307;49.628;-1.624;2023-10-13T05:27:40;20.30;71.50
73121;DHT22;61307;49.628;-1.624;2023-10-13T05:30:24;20.30;71.50
73121;DHT22;61307;49.628;-1.624;2023-10-13T05:33:09;20.30;71.50
73121;DHT22;61307;49.628;-1.624;2023-10-13T05:36:00;20.30;71.50
73121;DHT22;61307;49.628;-1.624;2023-10-13T05:38:45;20.30;71.50
73121;DHT22;61307;49.628;-1.624;2023-10-13T05:41:34;20.30;71.50
73121;DHT22;61307;49.628;-1.624;2023-10-13T05:44:19;20.30;71.50
73121;DHT22;61307;49.628;-1.624;2023-10-13T05:47:04;20.30;71.50
73121;DHT22;61307;49.628;-1.624;2023-10-13T05:59:20;20.30;71.40
73121;DHT22;61307;49.628;-1.624;2023-10-13T06:02:05;20.30;71.50
73121;DHT22;61307;49.628;-1.624;2023-10-13T06:04:50;20.30;71.40
73121;DHT22;61307;49.628;-1.624;2023-10-13T06:07:31;20.30;71.40
73121;DHT22;61307;49.628;-1.624;2023-10-13T06:10:16;20.30;71.40
73121;DHT22;61307;49.628;-1.624;2023-10-13T06:13:12;20.30;71.40
73121;DHT22;61307;49.628;-1.624;2023-10-13T06:15:58;20.30;71.40
73121;DHT22;61307;49.628;-1.624;2023-10-13T06:18:43;20.30;71.40
73121;DHT22;61307;49.628;-1.624;2023-10-13T06:21:28;20.30;71.40
73121;DHT22;61307;49.628;-1.624;2023-10-13T06:24:13;20.30;71.30
73121;DHT22;61307;49.628;-1.624;2023-10-13T06:26:57;20.30;71.30
73121;DHT22;61307;49.628;-1.624;2023-10-13T06:29:43;20.30;71.30
73121;DHT22;61307;49.628;-1.624;2023-10-13T06:32:13;20.30;71.30
73121;DHT22;61307;49.628;-1.624;2023-10-13T06:34:42;20.30;71.30
73121;DHT22;61307;49.628;-1.624;2023-10-13T06:37:10;20.30;71.30
73121;DHT22;61307;49.628;-1.624;2023-10-13T06:39:49;20.30;71.30
73121;DHT22;61307;49.628;-1.624;2023-10-13T06:42:19;20.30;71.30
73121;DHT22;61307;49.628;-1.624;2023-10-13T06:44:47;20.30;71.30
73121;DHT22;61307;49.628;-1.624;2023-10-13T06:47:16;20.30;71.20
73121;DHT22;61307;49.628;-1.624;2023-10-13T06:49:46;20.30;71.20
73121;DHT22;61307;49.628;-1.624;2023-10-13T06:52:16;20.30;71.20
73121;DHT22;61307;49.628;-1.624;2023-10-13T06:54:44;20.30;71.20
73121;DHT22;61307;49.628;-1.624;2023-10-13T06:57:12;20.30;71.20
73121;DHT22;61307;49.628;-1.624;2023-10-13T06:59:47;20.30;71.20
73121;DHT22;61307;49.628;-1.624;2023-10-13T07:02:30;20.40;71.40
73121;DHT22;61307;49.628;-1.624;2023-10-13T07:05:00;20.40;71.40
73121;DHT22;61307;49.628;-1.624;2023-10-13T07:07:33;20.40;71.40
73121;DHT22;61307;49.628;-1.624;2023-10-13T07:10:26;20.40;71.40
73121;DHT22;61307;49.628;-1.624;2023-10-13T07:20:15;20.60;71.50
73121;DHT22;61307;49.628;-1.624;2023-10-13T07:22:49;20.60;71.40
73121;DHT22;61307;49.628;-1.624;2023-10-13T07:25:56;20.60;71.30
73121;DHT22;61307;49.628;-1.624;2023-10-13T07:28:29;20.70;71.30
73121;DHT22;61307;49.628;-1.624;2023-10-13T07:30:57;20.70;71.20
73121;DHT22;61307;49.628;-1.624;2023-10-13T07:33:38;20.70;71.10
73121;DHT22;61307;49.628;-1.624;2023-10-13T07:36:09;20.70;71.00
73121;DHT22;61307;49.628;-1.624;2023-10-13T07:38:44;20.80;71.10
73121;DHT22;61307;49.628;-1.624;2023-10-13T07:41:15;20.80;71.20
73121;DHT22;61307;49.628;-1.624;2023-10-13T07:43:43;20.80;71.10
73121;DHT22;61307;49.628;-1.624;2023-10-13T07:46:12;20.90;71.90
73121;DHT22;61307;49.628;-1.624;2023-10-13T07:48:40;20.90;71.10
73121;DHT22;61307;49.628;-1.624;2023-10-13T07:54:00;21.00;71.00
73121;DHT22;61307;49.628;-1.624;2023-10-13T07:59:17;21.00;70.80
73121;DHT22;61307;49.628;-1.624;2023-10-13T08:01:48;21.00;70.80
73121;DHT22;61307;49.628;-1.624;2023-10-13T08:04:36;21.00;70.70
73121;DHT22;61307;49.628;-1.624;2023-10-13T08:07:05;21.00;70.70
73121;DHT22;61307;49.628;-1.624;2023-10-13T08:12:18;21.00;70.60
73121;DHT22;61307;49.628;-1.624;2023-10-13T08:14:49;21.00;70.60
73121;DHT22;61307;49.628;-1.624;2023-10-13T08:17:35;21.00;70.30
73121;DHT22;61307;49.628;-1.624;2023-10-13T08:20:03;21.10;70.60
73121;DHT22;61307;49.628;-1.624;2023-10-13T08:22:39;21.00;70.50
73121;DHT22;61307;49.628;-1.624;2023-10-13T08:25:13;21.00;70.50
73121;DHT22;61307;49.628;-1.624;2023-10-13T08:28:12;21.10;70.50
73121;DHT22;61307;49.628;-1.624;2023-10-13T08:31:14;21.10;70.50
73121;DHT22;61307;49.628;-1.624;2023-10-13T08:34:06;21.10;70.40
73121;DHT22;61307;49.628;-1.624;2023-10-13T08:37:07;21.10;70.50
73121;DHT22;61307;49.628;-1.624;2023-10-13T08:40:08;21.10;70.40
73121;DHT22;61307;49.628;-1.624;2023-10-13T08:42:53;21.10;70.40
73121;DHT22;61307;49.628;-1.624;2023-10-13T08:45:38;21.10;70.40
73121;DHT22;61307;49.628;-1.624;2023-10-13T08:48:41;21.10;70.30
73121;DHT22;61307;49.628;-1.624;2023-10-13T08:51:25;21.10;70.30
73121;DHT22;61307;49.628;-1.624;2023-10-13T08:54:13;21.20;70.50
73121;DHT22;61307;49.628;-1.624;2023-10-13T08:57:02;21.20;70.30
73121;DHT22;61307;49.628;-1.624;2023-10-13T08:59:47;21.20;70.20
73121;DHT22;61307;49.628;-1.624;2023-10-13T09:02:41;21.30;70.20
73121;DHT22;61307;49.628;-1.624;2023-10-13T09:05:43;21.20;70.10
73121;DHT22;61307;49.628;-1.624;2023-10-13T09:08:35;21.30;70.10
73121;DHT22;61307;49.628;-1.624;2023-10-13T09:11:08;21.40;70.30
73121;DHT22;61307;49.628;-1.624;2023-10-13T09:13:52;21.40;70.20
73121;DHT22;61307;49.628;-1.624;2023-10-13T09:16:38;21.30;70.00
73121;DHT22;61307;49.628;-1.624;2023-10-13T09:19:44;21.40;70.00
73121;DHT22;61307;49.628;-1.624;2023-10-13T09:22:22;21.40;69.90
73121;DHT22;61307;49.628;-1.624;2023-10-13T09:34:04;21.40;69.70
73121;DHT22;61307;49.628;-1.624;2023-10-13T09:36:32;21.50;69.90
73121;DHT22;61307;49.628;-1.624;2023-10-13T09:39:02;21.50;69.80
73121;DHT22;61307;49.628;-1.624;2023-10-13T09:41:40;21.60;70.00
73121;DHT22;61307;49.628;-1.624;2023-10-13T09:44:06;21.50;69.80
73121;DHT22;61307;49.628;-1.624;2023-10-13T09:46:39;21.50;69.80
73121;DHT22;61307;49.628;-1.624;2023-10-13T09:49:12;21.50;69.80
73121;DHT22;61307;49.628;-1.624;2023-10-13T09:51:44;21.50;69.80
73121;DHT22;61307;49.628;-1.624;2023-10-13T09:54:19;21.60;69.90
73121;DHT22;61307;49.628;-1.624;2023-10-13T09:56:58;21.60;69.90
73121;DHT22;61307;49.628;-1.624;2023-10-13T09:59:32;21.60;69.90
73121;DHT22;61307;49.628;-1.624;2023-10-13T10:02:05;21.60;69.90
73121;DHT22;61307;49.628;-1.624;2023-10-13T10:04:35;21.60;69.90
73121;DHT22;61307;49.628;-1.624;2023-10-13T10:07:10;21.50;69.80
73121;DHT22;61307;49.628;-1.624;2023-10-13T10:09:37;21.60;69.90
73121;DHT22;61307;49.628;-1.624;2023-10-13T10:12:24;21.60;69.90
73121;DHT22;61307;49.628;-1.624;2023-10-13T10:15:07;21.60;70.00
73121;DHT22;61307;49.628;-1.624;2023-10-13T10:17:41;21.60;69.90
73121;DHT22;61307;49.628;-1.624;2023-10-13T10:20:09;21.60;69.90
73121;DHT22;61307;49.628;-1.624;2023-10-13T10:22:55;21.50;69.80
73121;DHT22;61307;49.628;-1.624;2023-10-13T10:25:29;21.60;70.00
73121;DHT22;61307;49.628;-1.624;2023-10-13T10:28:01;21.60;70.00
73121;DHT22;61307;49.628;-1.624;2023-10-13T10:30:32;21.50;69.90
73121;DHT22;61307;49.628;-1.624;2023-10-13T10:33:03;21.60;70.10
73121;DHT22;61307;49.628;-1.624;2023-10-13T10:35:41;21.50;69.90
73121;DHT22;61307;49.628;-1.624;2023-10-13T10:38:13;21.60;70.10
73121;DHT22;61307;49.628;-1.624;2023-10-13T10:40:56;21.60;70.00
73121;DHT22;61307;49.628;-1.624;2023-10-13T10:43:25;21.50;70.00
73121;DHT22;61307;49.628;-1.624;2023-10-13T10:46:06;21.60;70.10
73121;DHT22;61307;49.628;-1.624;2023-10-13T10:48:34;21.70;70.20
73121;DHT22;61307;49.628;-1.624;2023-10-13T10:51:04;21.60;70.10
73121;DHT22;61307;49.628;-1.624;2023-10-13T10:53:54;21.70;70.20
73121;DHT22;61307;49.628;-1.624;2023-10-13T10:56:24;21.60;70.00
73121;DHT22;61307;49.628;-1.624;2023-10-13T10:59:03;21.70;70.20
73121;DHT22;61307;49.628;-1.624;2023-10-13T11:01:43;21.60;70.00
73121;DHT22;61307;49.628;-1.624;2023-10-13T11:04:22;21.70;70.00
73121;DHT22;61307;49.628;-1.624;2023-10-13T11:07:06;21.70;70.00
73121;DHT22;61307;49.628;-1.624;2023-10-13T11:09:39;21.80;70.10
73121;DHT22;61307;49.628;-1.624;2023-10-13T11:12:18;21.80;70.10
73121;DHT22;61307;49.628;-1.624;2023-10-13T11:15:02;21.80;70.00
73121;DHT22;61307;49.628;-1.624;2023-10-13T11:17:40;21.80;70.00
73121;DHT22;61307;49.628;-1.624;2023-10-13T11:20:20;21.80;70.00
73121;DHT22;61307;49.628;-1.624;2023-10-13T11:22:59;21.80;70.00
73121;DHT22;61307;49.628;-1.624;2023-10-13T11:25:31;21.80;70.00
73121;DHT22;61307;49.628;-1.624;2023-10-13T11:28:10;21.80;70.10
73121;DHT22;61307;49.628;-1.624;2023-10-13T11:30:43;21.80;70.10
73121;DHT22;61307;49.628;-1.624;2023-10-13T11:33:16;21.80;70.10
73121;DHT22;61307;49.628;-1.624;2023-10-13T11:35:50;21.80;70.10
73121;DHT22;61307;49.628;-1.624;2023-10-13T11:38:30;21.80;70.10
73121;DHT22;61307;49.628;-1.624;2023-10-13T11:41:09;21.80;70.10
73121;DHT22;61307;49.628;-1.624;2023-10-13T11:43:41;21.80;70.10
73121;DHT22;61307;49.628;-1.624;2023-10-13T11:46:27;21.80;70.10
73121;DHT22;61307;49.628;-1.624;2023-10-13T11:49:20;21.80;70.10
73121;DHT22;61307;49.628;-1.624;2023-10-13T11:51:59;21.80;70.10
73121;DHT22;61307;49.628;-1.624;2023-10-13T11:54:42;21.80;70.10
73121;DHT22;61307;49.628;-1.624;2023-10-13T11:57:09;21.90;70.10
73121;DHT22;61307;49.628;-1.624;2023-10-13T11:59:51;21.90;70.10
73121;DHT22;61307;49.628;-1.624;2023-10-13T12:02:41;21.90;70.10
73121;DHT22;61307;49.628;-1.624;2023-10-13T12:05:32;21.90;70.10
73121;DHT22;61307;49.628;-1.624;2023-10-13T12:08:17;21.90;70.10
73121;DHT22;61307;49.628;-1.624;2023-10-13T12:10:58;22.00;70.00
73121;DHT22;61307;49.628;-1.624;2023-10-13T12:13:46;22.00;70.10
73121;DHT22;61307;49.628;-1.624;2023-10-13T12:16:13;22.00;70.20
73121;DHT22;61307;49.628;-1.624;2023-10-13T12:18:45;22.00;70.10
73121;DHT22;61307;49.628;-1.624;2023-10-13T12:21:19;22.00;70.00
73121;DHT22;61307;49.628;-1.624;2023-10-13T12:23:48;22.00;70.10
73121;DHT22;61307;49.628;-1.624;2023-10-13T12:26:17;22.10;70.50
73121;DHT22;61307;49.628;-1.624;2023-10-13T12:28:46;22.10;70.40
73121;DHT22;61307;49.628;-1.624;2023-10-13T12:34:42;22.20;70.30
73121;DHT22;61307;49.628;-1.624;2023-10-13T12:40:50;22.30;70.60
73121;DHT22;61307;49.628;-1.624;2023-10-13T12:43:38;22.40;71.10
73121;DHT22;61307;49.628;-1.624;2023-10-13T12:46:34;22.40;71.00
73121;DHT22;61307;49.628;-1.624;2023-10-13T12:56:09;22.40;70.60
73121;DHT22;61307;49.628;-1.624;2023-10-13T12:59:09;22.50;70.70
73121;DHT22;61307;49.628;-1.624;2023-10-13T13:01:54;22.50;70.50
73121;DHT22;61307;49.628;-1.624;2023-10-13T13:04:38;22.50;70.50
73121;DHT22;61307;49.628;-1.624;2023-10-13T13:07:36;22.50;70.30
73121;DHT22;61307;49.628;-1.624;2023-10-13T13:10:19;22.50;70.30
73121;DHT22;61307;49.628;-1.624;2023-10-13T13:16:07;22.50;70.40
73121;DHT22;61307;49.628;-1.624;2023-10-13T13:18:35;22.60;70.50
73121;DHT22;61307;49.628;-1.624;2023-10-13T13:21:21;22.60;70.30
73121;DHT22;61307;49.628;-1.624;2023-10-13T13:24:12;22.60;70.30
73121;DHT22;61307;49.628;-1.624;2023-10-13T13:26:40;22.60;70.20
73121;DHT22;61307;49.628;-1.624;2023-10-13T13:36:29;22.70;70.10
73121;DHT22;61307;49.628;-1.624;2023-10-13T13:38:56;22.70;69.90
73121;DHT22;61307;49.628;-1.624;2023-10-13T13:42:01;22.60;69.70
73121;DHT22;61307;49.628;-1.624;2023-10-13T13:44:28;22.60;70.00
73121;DHT22;61307;49.628;-1.624;2023-10-13T13:47:02;22.60;70.00
73121;DHT22;61307;49.628;-1.624;2023-10-13T13:49:37;22.60;70.10
73121;DHT22;61307;49.628;-1.624;2023-10-13T13:52:08;22.70;69.80
73121;DHT22;61307;49.628;-1.624;2023-10-13T13:54:41;22.60;69.60
73121;DHT22;61307;49.628;-1.624;2023-10-13T13:57:11;22.70;69.70
73121;DHT22;61307;49.628;-1.624;2023-10-13T13:59:44;22.70;69.70
73121;DHT22;61307;49.628;-1.624;2023-10-13T14:02:11;22.60;69.60
73121;DHT22;61307;49.628;-1.624;2023-10-13T14:04:46;22.60;69.60
73121;DHT22;61307;49.628;-1.624;2023-10-13T14:07:21;22.60;69.50
73121;DHT22;61307;49.628;-1.624;2023-10-13T14:09:54;22.60;69.60
73121;DHT22;61307;49.628;-1.624;2023-10-13T14:12:31;22.50;69.60
73121;DHT22;61307;49.628;-1.624;2023-10-13T15:00:17;22.10;70.60
73121;DHT22;61307;49.628;-1.624;2023-10-13T15:03:00;22.00;70.50
73121;DHT22;61307;49.628;-1.624;2023-10-13T15:05:38;22.00;70.60
73121;DHT22;61307;49.628;-1.624;2023-10-13T15:08:13;22.00;70.90
73121;DHT22;61307;49.628;-1.624;2023-10-13T15:10:46;22.00;70.90
73121;DHT22;61307;49.628;-1.624;2023-10-13T15:13:17;22.00;70.90
73121;DHT22;61307;49.628;-1.624;2023-10-13T15:15:53;22.00;70.90
73121;DHT22;61307;49.628;-1.624;2023-10-13T15:18:31;22.00;70.90
73121;DHT22;61307;49.628;-1.624;2023-10-13T15:21:00;22.00;70.80
73121;DHT22;61307;49.628;-1.624;2023-10-13T15:23:41;22.00;70.70
73121;DHT22;61307;49.628;-1.624;2023-10-13T15:33:16;22.00;70.20
73121;DHT22;61307;49.628;-1.624;2023-10-13T15:36:50;22.00;70.00
73121;DHT22;61307;49.628;-1.624;2023-10-13T15:39:05;22.00;70.00
73121;DHT22;61307;49.628;-1.624;2023-10-13T15:41:34;22.00;70.00
73121;DHT22;61307;49.628;-1.624;2023-10-13T15:44:04;22.00;70.00
73121;DHT22;61307;49.628;-1.624;2023-10-13T15:46:36;22.00;69.90
73121;DHT22;61307;49.628;-1.624;2023-10-13T15:52:01;22.00;69.80
73121;DHT22;61307;49.628;-1.624;2023-10-13T15:54:32;21.90;69.80
73121;DHT22;61307;49.628;-1.624;2023-10-13T15:57:03;21.90;69.80
73121;DHT22;61307;49.628;-1.624;2023-10-13T15:59:32;21.90;69.80
73121;DHT22;61307;49.628;-1.624;2023-10-13T16:02:06;21.90;70.70
73121;DHT22;61307;49.628;-1.624;2023-10-13T16:04:39;21.90;69.80
73121;DHT22;61307;49.628;-1.624;2023-10-13T16:07:06;21.90;69.80
73121;DHT22;61307;49.628;-1.624;2023-10-13T16:09:36;21.90;69.90
73121;DHT22;61307;49.628;-1.624;2023-10-13T16:12:05;21.90;69.80
73121;DHT22;61307;49.628;-1.624;2023-10-13T16:14:36;21.80;69.80
73121;DHT22;61307;49.628;-1.624;2023-10-13T16:17:03;21.80;69.80
73121;DHT22;61307;49.628;-1.624;2023-10-13T16:19:34;21.80;69.90
73121;DHT22;61307;49.628;-1.624;2023-10-13T16:22:04;21.70;69.80
73121;DHT22;61307;49.628;-1.624;2023-10-13T16:24:32;21.70;69.80
73121;DHT22;61307;49.628;-1.624;2023-10-13T16:27:01;21.70;69.90
73121;DHT22;61307;49.628;-1.624;2023-10-13T16:29:28;21.70;69.80
73121;DHT22;61307;49.628;-1.624;2023-10-13T16:31:57;21.70;69.90
73121;DHT22;61307;49.628;-1.624;2023-10-13T16:34:25;21.70;69.90
73121;DHT22;61307;49.628;-1.624;2023-10-13T16:36:52;21.70;69.90
73121;DHT22;61307;49.628;-1.624;2023-10-13T16:39:22;21.60;69.80
73121;DHT22;61307;49.628;-1.624;2023-10-13T16:41:51;21.60;69.80
73121;DHT22;61307;49.628;-1.624;2023-10-13T16:44:18;21.60;69.80
73121;DHT22;61307;49.628;-1.624;2023-10-13T16:46:45;21.60;69.80
73121;DHT22;61307;49.628;-1.624;2023-10-13T16:49:15;21.60;69.80
73121;DHT22;61307;49.628;-1.624;2023-10-13T16:58:15;21.50;69.80
73121;DHT22;61307;49.628;-1.624;2023-10-13T17:01:22;21.50;70.50
73121;DHT22;61307;49.628;-1.624;2023-10-13T17:04:03;21.50;69.90
73121;DHT22;61307;49.628;-1.624;2023-10-13T17:06:32;21.50;69.90
73121;DHT22;61307;49.628;-1.624;2023-10-13T17:09:00;21.40;69.80
73121;DHT22;61307;49.628;-1.624;2023-10-13T17:11:29;21.40;69.80
73121;DHT22;61307;49.628;-1.624;2023-10-13T17:13:58;21.40;69.80
73121;DHT22;61307;49.628;-1.624;2023-10-13T17:16:26;21.40;69.80
73121;DHT22;61307;49.628;-1.624;2023-10-13T17:18:56;21.40;69.80
73121;DHT22;61307;49.628;-1.624;2023-10-13T17:21:25;21.40;69.90
73121;DHT22;61307;49.628;-1.624;2023-10-13T17:23:54;21.40;69.90
73121;DHT22;61307;49.628;-1.624;2023-10-13T17:26:23;21.40;69.90
73121;DHT22;61307;49.628;-1.624;2023-10-13T17:28:52;21.30;69.80
73121;DHT22;61307;49.628;-1.624;2023-10-13T17:31:23;21.40;69.90
73121;DHT22;61307;49.628;-1.624;2023-10-13T17:33:52;21.40;69.90
73121;DHT22;61307;49.628;-1.624;2023-10-13T17:36:24;21.40;69.90
73121;DHT22;61307;49.628;-1.624;2023-10-13T17:38:58;21.40;69.90
73121;DHT22;61307;49.628;-1.624;2023-10-13T17:41:26;21.30;69.90
73121;DHT22;61307;49.628;-1.624;2023-10-13T17:43:58;21.30;69.90
73121;DHT22;61307;49.628;-1.624;2023-10-13T17:46:29;21.30;69.90
73121;DHT22;61307;49.628;-1.624;2023-10-13T17:48:56;21.30;69.90
73121;DHT22;61307;49.628;-1.624;2023-10-13T17:51:24;21.30;69.90
73121;DHT22;61307;49.628;-1.624;2023-10-13T17:53:51;21.30;69.90
73121;DHT22;61307;49.628;-1.624;2023-10-13T17:56:19;21.30;69.90
73121;DHT22;61307;49.628;-1.624;2023-10-13T17:58:46;21.30;70.00
73121;DHT22;61307;49.628;-1.624;2023-10-13T18:01:18;21.30;70.00
73121;DHT22;61307;49.628;-1.624;2023-10-13T18:03:48;21.30;70.00
73121;DHT22;61307;49.628;-1.624;2023-10-13T18:06:16;21.30;70.00
73121;DHT22;61307;49.628;-1.624;2023-10-13T18:08:43;21.30;70.00
73121;DHT22;61307;49.628;-1.624;2023-10-13T18:11:11;21.30;70.10
73121;DHT22;61307;49.628;-1.624;2023-10-13T18:13:39;21.30;70.10
73121;DHT22;61307;49.628;-1.624;2023-10-13T18:16:14;21.30;70.10
73121;DHT22;61307;49.628;-1.624;2023-10-13T18:18:42;21.20;70.00
73121;DHT22;61307;49.628;-1.624;2023-10-13T18:21:12;21.20;70.00
73121;DHT22;61307;49.628;-1.624;2023-10-13T18:33:27;21.20;70.20
73121;DHT22;61307;49.628;-1.624;2023-10-13T18:36:09;21.20;70.30
73121;DHT22;61307;49.628;-1.624;2023-10-13T18:38:38;21.20;70.30
73121;DHT22;61307;49.628;-1.624;2023-10-13T18:41:06;21.20;70.30